| time (UTC) | temp F | wind direction | speed knots | gust knots | rain 1hr in | rain 24hr in | rain mn in | humidity % | barometer mb |
| 20260509213544 | 56 | 179 | 0.9 | 1.7 | 0.00 | 0.29 | 0.29 | 86 | 1008.0 |
| 20260509213041 | 55 | 137 | 0.9 | 1.7 | 0.00 | 0.29 | 0.29 | 86 | 1008.1 |
| 20260509212538 | 55 | 178 | 4.3 | 5.2 | 0.00 | 0.29 | 0.29 | 86 | 1008.0 |
| 20260509212035 | 55 | 173 | 1.7 | 1.7 | 0.00 | 0.29 | 0.29 | 86 | 1008.1 |
| 20260509211530 | 55 | 127 | 2.6 | 2.6 | 0.00 | 0.29 | 0.29 | 86 | 1008.2 |
| 20260509211027 | 55 | 120 | 2.6 | 4.3 | 0.00 | 0.29 | 0.29 | 86 | 1008.3 |
| 20260509210524 | 55 | 172 | 0.9 | 0.9 | 0.00 | 0.29 | 0.29 | 86 | 1008.3 |
| 20260509210020 | 55 | 197 | 6.1 | 7.8 | 0.00 | 0.29 | 0.29 | 86 | 1008.1 |
| 20260509205514 | 55 | 239 | 4.3 | 6.1 | 0.00 | 0.29 | 0.29 | 87 | 1008.3 |
| 20260509205010 | 55 | 191 | 2.6 | 4.3 | 0.00 | 0.29 | 0.29 | 87 | 1008.4 |
| 20260509204507 | 55 | 228 | 3.5 | 4.3 | 0.00 | 0.29 | 0.29 | 87 | 1008.5 |
| 20260509204003 | 54 | 169 | 4.3 | 5.2 | 0.00 | 0.29 | 0.29 | 87 | 1008.6 |
| 20260509203459 | 54 | 145 | 3.5 | 4.3 | 0.00 | 0.29 | 0.29 | 87 | 1008.5 |
| 20260509202957 | 54 | 168 | 1.7 | 1.7 | 0.00 | 0.29 | 0.29 | 87 | 1008.5 |
| 20260509202452 | 54 | 226 | 5.2 | 7.0 | 0.00 | 0.29 | 0.29 | 87 | 1008.6 |
| 20260509201948 | 54 | 234 | 4.3 | 5.2 | 0.00 | 0.29 | 0.29 | 88 | 1008.5 |
| 20260509201443 | 54 | 183 | 5.2 | 8.7 | 0.00 | 0.29 | 0.29 | 88 | 1008.6 |
| 20260509200940 | 54 | 162 | 3.5 | 4.3 | 0.00 | 0.29 | 0.29 | 88 | 1008.8 |
| 20260509200440 | 53 | 227 | 2.6 | 2.6 | 0.00 | 0.29 | 0.29 | 88 | 1008.8 |
| 20260509195937 | 53 | 200 | 2.6 | 2.6 | 0.00 | 0.29 | 0.29 | 89 | 1008.8 |
| 20260509195433 | 53 | 222 | 4.3 | 6.1 | 0.00 | 0.29 | 0.29 | 89 | 1009.2 |
| 20260509194932 | 53 | 147 | 2.6 | 4.3 | 0.00 | 0.29 | 0.29 | 89 | 1008.9 |
| 20260509194428 | 53 | 182 | 0.9 | 0.9 | 0.00 | 0.29 | 0.29 | 89 | 1008.8 |
| 20260509193926 | 53 | 187 | 0.0 | 0.9 | 0.00 | 0.29 | 0.29 | 89 | 1009.0 |
| 20260509193425 | 53 | 170 | 0.9 | 1.7 | 0.00 | 0.29 | 0.29 | 90 | 1009.0 |
| 20260509192921 | 53 | 181 | 0.9 | 0.9 | 0.00 | 0.29 | 0.29 | 90 | 1008.8 |
| 20260509192418 | 53 | 182 | 2.6 | 2.6 | 0.00 | 0.29 | 0.29 | 91 | 1009.1 |
| 20260509191913 | 53 | 181 | 1.7 | 2.6 | 0.00 | 0.29 | 0.29 | 91 | 1009.4 |
| 20260509191409 | 53 | 144 | 0.9 | 0.9 | 0.00 | 0.29 | 0.29 | 92 | 1009.1 |
| 20260509190905 | 52 | 175 | 3.5 | 4.3 | 0.00 | 0.29 | 0.29 | 92 | 1009.4 |
| 20260509190402 | 52 | 171 | 0.0 | 0.9 | 0.00 | 0.29 | 0.29 | 93 | 1009.4 |
| 20260509185900 | 51 | 195 | 2.6 | 2.6 | 0.00 | 0.29 | 0.29 | 93 | 1009.3 |
| 20260509185356 | 51 | 168 | 3.5 | 4.3 | 0.00 | 0.29 | 0.29 | 93 | 1009.5 |
| 20260509184853 | 51 | 198 | 1.7 | 1.7 | 0.00 | 0.29 | 0.29 | 94 | 1009.5 |
| 20260509184350 | 51 | 174 | 0.0 | 0.0 | 0.00 | 0.29 | 0.29 | 94 | 1009.4 |
| 20260509183847 | 51 | 181 | 2.6 | 2.6 | 0.00 | 0.29 | 0.29 | 94 | 1009.3 |
| 20260509183342 | 52 | 193 | 3.5 | 4.3 | 0.00 | 0.29 | 0.29 | 94 | 1009.3 |
| 20260509182838 | 51 | 189 | 0.9 | 1.7 | 0.00 | 0.29 | 0.29 | 94 | 1009.5 |
| 20260509182336 | 51 | 192 | 2.6 | 2.6 | 0.00 | 0.29 | 0.29 | 95 | 1009.5 |
| 20260509181833 | 51 | 178 | 2.6 | 2.6 | 0.00 | 0.29 | 0.29 | 95 | 1009.2 |
| 20260509181330 | 51 | 154 | 0.9 | 1.7 | 0.00 | 0.29 | 0.29 | 95 | 1009.4 |
| 20260509180827 | 51 | 163 | 1.7 | 1.7 | 0.00 | 0.29 | 0.29 | 95 | 1009.4 |
| 20260509180323 | 51 | 172 | 0.9 | 0.9 | 0.00 | 0.29 | 0.29 | 95 | 1009.3 |
| 20260509175820 | 51 | 165 | 0.0 | 0.0 | 0.00 | 0.29 | 0.29 | 95 | 1009.1 |
| 20260509175316 | 51 | 190 | 0.9 | 1.7 | 0.00 | 0.29 | 0.29 | 95 | 1009.5 |
| 20260509174812 | 51 | 154 | 1.7 | 1.7 | 0.00 | 0.29 | 0.29 | 95 | 1009.1 |
| 20260509174307 | 51 | 189 | 3.5 | 4.3 | 0.00 | 0.29 | 0.29 | 95 | 1009.3 |
| 20260509173804 | 51 | 167 | 0.0 | 0.0 | 0.00 | 0.29 | 0.29 | 95 | 1009.3 |
| 20260509173254 | 51 | 162 | 0.0 | 0.0 | 0.00 | 0.29 | 0.29 | 95 | 1009.5 |
| 20260509172750 | 51 | 173 | 0.9 | 0.9 | 0.00 | 0.29 | 0.29 | 95 | 1009.5 |
| 20260509172247 | 51 | 149 | 2.6 | 2.6 | 0.00 | 0.29 | 0.29 | 95 | 1009.3 |
| 20260509171743 | 51 | 181 | 4.3 | 5.2 | 0.00 | 0.29 | 0.29 | 95 | 1009.1 |
| 20260509171239 | 51 | 165 | 0.0 | 0.9 | 0.00 | 0.29 | 0.29 | 95 | 1009.3 |
| 20260509170736 | 51 | 157 | 3.5 | 5.2 | 0.00 | 0.29 | 0.29 | 95 | 1009.3 |
| 20260509170232 | 50 | 125 | 2.6 | 2.6 | 0.00 | 0.29 | 0.29 | 95 | 1009.1 |
| 20260509165730 | 50 | 196 | 0.9 | 1.7 | 0.00 | 0.29 | 0.29 | 95 | 1009.2 |
| 20260509165225 | 50 | 162 | 1.7 | 1.7 | 0.00 | 0.29 | 0.29 | 95 | 1009.3 |
| 20260509164722 | 50 | 137 | 2.6 | 2.6 | 0.00 | 0.29 | 0.29 | 95 | 1009.4 |
| 20260509164218 | 50 | 205 | 1.7 | 1.7 | 0.00 | 0.29 | 0.29 | 95 | 1009.5 |
| 20260509163715 | 50 | 164 | 0.0 | 0.0 | 0.00 | 0.29 | 0.29 | 95 | 1009.6 |
| 20260509163212 | 51 | 170 | 0.9 | 0.9 | 0.00 | 0.29 | 0.29 | 95 | 1009.5 |
| 20260509162709 | 51 | 118 | 4.3 | 5.2 | 0.00 | 0.29 | 0.29 | 95 | 1009.4 |
| 20260509162205 | 51 | 172 | 2.6 | 2.6 | 0.00 | 0.29 | 0.29 | 95 | 1009.5 |
| 20260509161700 | 50 | 134 | 0.9 | 1.7 | 0.05 | 0.29 | 0.29 | 95 | 1009.6 |
| 20260509161156 | 50 | 168 | 2.6 | 2.6 | 0.05 | 0.29 | 0.29 | 95 | 1010.0 |
| 20260509160652 | 50 | 159 | 1.7 | 1.7 | 0.00 | 0.28 | 0.28 | 95 | 1009.8 |
| 20260509160148 | 50 | 148 | 0.9 | 0.9 | 0.00 | 0.28 | 0.28 | 95 | 1009.7 |
| 20260509155644 | 50 | 181 | 2.6 | 5.2 | 0.07 | 0.28 | 0.28 | 95 | 1009.8 |
| 20260509155140 | 50 | 126 | 2.6 | 2.6 | 0.07 | 0.28 | 0.28 | 95 | 1009.7 |
| 20260509154636 | 50 | 171 | 2.6 | 4.3 | 0.00 | 0.27 | 0.27 | 95 | 1010.0 |
| 20260509154133 | 50 | 126 | 3.5 | 4.3 | 0.00 | 0.27 | 0.27 | 95 | 1010.0 |
| 20260509153630 | 50 | 159 | 3.5 | 4.3 | 0.00 | 0.27 | 0.27 | 95 | 1010.0 |
| 20260509153127 | 50 | 155 | 2.6 | 2.6 | 0.00 | 0.27 | 0.27 | 95 | 1010.0 |
| 20260509152623 | 50 | 138 | 6.1 | 7.0 | 0.00 | 0.27 | 0.27 | 95 | 1009.7 |
| 20260509152121 | 50 | 111 | 4.3 | 5.2 | 0.00 | 0.27 | 0.27 | 95 | 1009.7 |
| 20260509151617 | 50 | 155 | 4.3 | 5.2 | 0.00 | 0.27 | 0.27 | 95 | 1010.1 |
| 20260509151114 | 50 | 152 | 4.3 | 5.2 | 0.05 | 0.27 | 0.27 | 95 | 1010.1 |
| 20260509150612 | 50 | 171 | 4.3 | 6.1 | 0.05 | 0.27 | 0.27 | 95 | 1010.2 |
| 20260509150110 | 50 | 135 | 2.6 | 2.6 | 0.00 | 0.26 | 0.26 | 95 | 1010.5 |
| 20260509145605 | 50 | 141 | 4.3 | 5.2 | 0.00 | 0.26 | 0.26 | 95 | 1010.4 |
| 20260509145101 | 49 | 148 | 3.5 | 4.3 | 0.07 | 0.26 | 0.26 | 95 | 1010.4 |
| 20260509144558 | 49 | 94 | 4.3 | 5.2 | 0.07 | 0.26 | 0.26 | 95 | 1010.4 |
| 20260509144055 | 49 | 141 | 3.5 | 5.2 | 0.00 | 0.25 | 0.25 | 95 | 1010.4 |
| 20260509143552 | 49 | 114 | 3.5 | 4.3 | 0.00 | 0.25 | 0.25 | 95 | 1010.4 |
| 20260509143050 | 49 | 167 | 1.7 | 1.7 | 0.05 | 0.25 | 0.25 | 95 | 1010.5 |
| 20260509142545 | 49 | 141 | 2.6 | 2.6 | 0.05 | 0.25 | 0.25 | 95 | 1010.6 |
| 20260509142041 | 49 | 168 | 0.9 | 1.7 | 0.00 | 0.24 | 0.24 | 95 | 1010.7 |
| 20260509141538 | 49 | 134 | 1.7 | 2.6 | 0.07 | 0.24 | 0.24 | 95 | 1010.6 |
| 20260509141035 | 49 | 142 | 2.6 | 4.3 | 0.07 | 0.24 | 0.24 | 95 | 1010.6 |
| 20260509140531 | 49 | 121 | 2.6 | 2.6 | 0.00 | 0.23 | 0.23 | 95 | 1010.8 |
| 20260509140029 | 49 | 140 | 2.6 | 4.3 | 0.00 | 0.23 | 0.23 | 95 | 1010.7 |
| 20260509135526 | 49 | 111 | 2.6 | 2.6 | 0.05 | 0.23 | 0.23 | 95 | 1010.7 |
| 20260509135023 | 49 | 158 | 2.6 | 4.3 | 0.05 | 0.23 | 0.23 | 95 | 1010.7 |
| 20260509134521 | 49 | 123 | 5.2 | 6.1 | 0.07 | 0.22 | 0.22 | 95 | 1010.6 |
| 20260509134018 | 48 | 182 | 3.5 | 4.3 | 0.07 | 0.22 | 0.22 | 95 | 1010.5 |
| 20260509133514 | 48 | 147 | 1.7 | 1.7 | 0.00 | 0.21 | 0.21 | 95 | 1010.7 |
| 20260509133013 | 48 | 140 | 1.7 | 1.7 | 0.05 | 0.21 | 0.21 | 95 | 1010.7 |
| 20260509132511 | 48 | 138 | 1.7 | 1.7 | 0.05 | 0.21 | 0.21 | 95 | 1010.7 |
| 20260509132008 | 48 | 119 | 2.6 | 2.6 | 0.07 | 0.20 | 0.20 | 95 | 1010.8 |
| 20260509131505 | 47 | 165 | 0.0 | 0.0 | 0.07 | 0.20 | 0.20 | 95 | 1010.8 |
| 20260509131001 | 47 | 162 | 0.9 | 0.9 | 0.00 | 0.19 | 0.19 | 95 | 1010.8 |
| 20260509130456 | 48 | 172 | 0.0 | 0.9 | 0.00 | 0.19 | 0.19 | 95 | 1010.7 |
| 20260509125954 | 48 | 150 | 0.9 | 0.9 | 0.07 | 0.19 | 0.19 | 95 | 1010.8 |
| 20260509125450 | 47 | 154 | 0.0 | 0.0 | 0.12 | 0.19 | 0.19 | 95 | 1010.9 |
| 20260509124946 | 47 | 149 | 0.9 | 1.7 | 0.05 | 0.18 | 0.18 | 95 | 1011.0 |
| 20260509124444 | 47 | 128 | 0.0 | 0.0 | 0.07 | 0.17 | 0.17 | 95 | 1011.0 |
| 20260509123941 | 46 | 185 | 0.9 | 0.9 | 0.00 | 0.16 | 0.16 | 95 | 1011.0 |
| 20260509123438 | 45 | 169 | 0.0 | 0.0 | 0.05 | 0.16 | 0.16 | 94 | 1011.1 |
| 20260509122934 | 45 | 170 | 0.0 | 0.0 | 0.12 | 0.16 | 0.16 | 94 | 1011.1 |
| 20260509122431 | 45 | 169 | 0.0 | 0.0 | 0.07 | 0.15 | 0.15 | 94 | 1011.0 |
| 20260509121927 | 45 | 180 | 0.9 | 0.9 | 0.00 | 0.14 | 0.14 | 94 | 1011.1 |
| 20260509121425 | 46 | 162 | 0.0 | 0.0 | 0.05 | 0.14 | 0.14 | 94 | 1011.1 |
| 20260509120923 | 46 | 164 | 0.0 | 0.0 | 0.05 | 0.14 | 0.14 | 94 | 1011.1 |
| 20260509120420 | 46 | 151 | 0.0 | 0.9 | 0.07 | 0.13 | 0.13 | 94 | 1011.3 |
| 20260509115918 | 46 | 152 | 0.0 | 0.0 | 0.12 | 0.13 | 0.13 | 94 | 1011.3 |
| 20260509115415 | 46 | 132 | 0.9 | 0.9 | 0.12 | 0.12 | 0.12 | 94 | 1011.2 |
| 20260509114913 | 46 | 153 | 0.0 | 0.0 | 0.12 | 0.11 | 0.11 | 94 | 1011.2 |
| 20260509114411 | 46 | 161 | 0.0 | 0.0 | 0.12 | 0.10 | 0.10 | 94 | 1011.1 |
| 20260509113911 | 45 | 171 | 0.0 | 0.0 | 0.12 | 0.09 | 0.09 | 94 | 1011.2 |
| 20260509113408 | 44 | 173 | 0.0 | 0.0 | 0.12 | 0.08 | 0.08 | 94 | 1011.0 |
| 20260509112903 | 44 | 175 | 0.0 | 0.0 | 0.14 | 0.07 | 0.07 | 93 | 1011.1 |
| 20260509112401 | 44 | 181 | 0.0 | 0.0 | 0.07 | 0.06 | 0.06 | 93 | 1011.1 |
| 20260509111858 | 45 | 196 | 0.9 | 0.9 | 0.12 | 0.05 | 0.05 | 93 | 1011.0 |
| 20260509111354 | 46 | 162 | 0.9 | 0.9 | 0.12 | 0.04 | 0.04 | 94 | 1011.0 |
| 20260509110853 | 46 | 135 | 1.7 | 1.7 | 0.05 | 0.03 | 0.03 | 94 | 1011.0 |
| 20260509110348 | 45 | 143 | 0.9 | 0.9 | 0.07 | 0.02 | 0.02 | 93 | 1011.0 |
| 20260509105847 | 44 | 118 | 0.0 | 0.0 | 0.07 | 0.02 | 0.02 | 93 | 1010.9 |
| 20260509105345 | 43 | 148 | 0.0 | 0.0 | 0.00 | 0.01 | 0.01 | 93 | 1010.9 |
| 20260509104841 | 42 | 155 | 0.0 | 0.0 | 0.00 | 0.01 | 0.01 | 93 | 1011.0 |
| 20260509104338 | 42 | 155 | 0.0 | 0.0 | 0.00 | 0.01 | 0.01 | 92 | 1011.0 |
| 20260509103836 | 42 | 153 | 0.0 | 0.0 | 0.00 | 0.01 | 0.01 | 92 | 1010.9 |
| 20260509103333 | 42 | 153 | 0.0 | 0.0 | 0.00 | 0.01 | 0.01 | 92 | 1010.8 |
| 20260509102832 | 42 | 157 | 0.0 | 0.0 | 0.00 | 0.01 | 0.01 | 92 | 1011.0 |
| 20260509102328 | 41 | 173 | 0.0 | 0.0 | 0.00 | 0.01 | 0.01 | 92 | 1011.0 |
| 20260509101824 | 41 | 175 | 0.0 | 0.0 | 0.00 | 0.01 | 0.01 | 92 | 1010.9 |
| 20260509101320 | 41 | 174 | 0.9 | 0.9 | 0.00 | 0.01 | 0.01 | 92 | 1011.0 |
| 20260509100818 | 41 | 152 | 0.0 | 0.0 | 0.00 | 0.01 | 0.01 | 92 | 1010.7 |
| 20260509100315 | 41 | 122 | 1.7 | 1.7 | 0.00 | 0.01 | 0.01 | 92 | 1010.9 |
| 20260509095812 | 41 | 148 | 0.9 | 1.7 | 0.00 | 0.01 | 0.01 | 91 | 1011.0 |
| 20260509095309 | 41 | 155 | 0.0 | 0.0 | 0.00 | 0.01 | 0.01 | 91 | 1011.0 |
| 20260509094806 | 41 | 155 | 0.0 | 0.0 | 0.00 | 0.01 | 0.01 | 91 | 1010.9 |
| 20260509094303 | 41 | 154 | 0.0 | 0.0 | 0.00 | 0.01 | 0.01 | 91 | 1010.8 |
| 20260509093801 | 41 | 144 | 0.0 | 0.0 | 0.00 | 0.01 | 0.01 | 91 | 1011.0 |
| 20260509093258 | 41 | 131 | 0.9 | 1.7 | 0.05 | 0.01 | 0.01 | 91 | 1011.0 |
| 20260509092756 | 41 | 167 | 0.0 | 0.0 | 0.05 | 0.01 | 0.01 | 91 | 1011.1 |
| 20260509092254 | 41 | 164 | 0.0 | 0.9 | 0.00 | 0.00 | 0.00 | 91 | 1011.1 |
| 20260509091751 | 41 | 140 | 0.0 | 0.0 | 0.00 | 0.00 | 0.00 | 91 | 1010.9 |
| 20260509091248 | 41 | 144 | 0.9 | 1.7 | 0.00 | 0.00 | 0.00 | 91 | 1011.1 |
| 20260509090745 | 41 | 146 | 0.9 | 0.9 | 0.00 | 0.00 | 0.00 | 90 | 1011.1 |
| 20260509090242 | 40 | 156 | 0.0 | 0.0 | 0.00 | 0.00 | 0.00 | 90 | 1011.2 |
| 20260509085740 | 40 | 155 | 0.0 | 0.0 | 0.00 | 0.00 | 0.00 | 90 | 1011.0 |
| 20260509085237 | 40 | 144 | 0.0 | 0.0 | 0.00 | 0.00 | 0.00 | 90 | 1011.1 |
| 20260509084733 | 40 | 148 | 0.0 | 0.0 | 0.00 | 0.00 | 0.00 | 90 | 1011.1 |
| 20260509084230 | 40 | 170 | 0.9 | 0.9 | 0.00 | 0.00 | 0.00 | 90 | 1011.1 |
| 20260509083728 | 40 | 174 | 0.9 | 1.7 | 0.00 | 0.00 | 0.00 | 90 | 1011.3 |
| 20260509083225 | 40 | 147 | 0.9 | 0.9 | 0.00 | 0.00 | 0.00 | 90 | 1011.3 |
| 20260509082721 | 40 | 130 | 1.7 | 1.7 | 0.00 | 0.00 | 0.00 | 90 | 1011.4 |
| 20260509082218 | 40 | 131 | 1.7 | 1.7 | 0.00 | 0.00 | 0.00 | 90 | 1011.6 |
| 20260509081715 | 40 | 161 | 0.0 | 0.0 | 0.00 | 0.00 | 0.00 | 90 | 1011.7 |
| 20260509081212 | 40 | 155 | 0.9 | 0.9 | 0.00 | 0.00 | 0.00 | 90 | 1011.5 |
| 20260509080711 | 40 | 155 | 0.0 | 0.0 | 0.00 | 0.00 | 0.00 | 90 | 1011.7 |
| 20260509080208 | 40 | 176 | 0.0 | 0.0 | 0.00 | 0.00 | 0.00 | 90 | 1011.6 |
| 20260509075706 | 40 | 176 | 0.0 | 0.0 | 0.00 | 0.00 | 0.00 | 90 | 1011.8 |
| 20260509075203 | 40 | 176 | 0.0 | 0.0 | 0.00 | 0.00 | 0.00 | 90 | 1011.5 |
| 20260509074700 | 40 | 176 | 0.0 | 0.0 | 0.00 | 0.00 | 0.00 | 90 | 1011.5 |
| 20260509074157 | 40 | 176 | 0.0 | 0.0 | 0.00 | 0.00 | 0.00 | 90 | 1011.4 |
| 20260509073654 | 40 | 176 | 0.0 | 0.0 | 0.00 | 0.00 | 0.00 | 89 | 1011.7 |
| 20260509073149 | 40 | 176 | 0.0 | 0.0 | 0.00 | 0.00 | 0.00 | 89 | 1011.7 |
| 20260509072647 | 40 | 176 | 0.0 | 0.0 | 0.00 | 0.00 | 0.00 | 89 | 1011.6 |
| 20260509072143 | 40 | 176 | 0.0 | 0.0 | 0.00 | 0.00 | 0.00 | 89 | 1011.6 |
| 20260509071640 | 40 | 176 | 0.0 | 0.0 | 0.00 | 0.00 | 0.00 | 89 | 1011.7 |
| 20260509071137 | 39 | 176 | 0.0 | 0.0 | 0.00 | 0.00 | 0.00 | 89 | 1011.6 |
| 20260509070634 | 39 | 176 | 0.0 | 0.0 | 0.00 | 0.00 | 0.00 | 89 | 1011.5 |
| 20260509070131 | 39 | 176 | 0.0 | 0.0 | 0.00 | 0.00 | 0.00 | 89 | 1011.5 |
| 20260509065626 | 39 | 176 | 0.0 | 0.0 | 0.00 | 0.00 | 0.00 | 89 | 1011.5 |
| 20260509065123 | 39 | 176 | 0.9 | 0.9 | 0.00 | 0.00 | 0.00 | 89 | 1011.5 |
| 20260509064620 | 40 | 176 | 0.0 | 0.0 | 0.00 | 0.00 | 0.00 | 89 | 1011.7 |
| 20260509064118 | 39 | 176 | 0.0 | 0.0 | 0.00 | 0.00 | 0.00 | 89 | 1011.8 |
| 20260509063614 | 40 | 176 | 0.9 | 0.9 | 0.00 | 0.00 | 0.00 | 89 | 1011.7 |
| 20260509063111 | 40 | 176 | 0.0 | 0.0 | 0.00 | 0.00 | 0.00 | 88 | 1011.8 |
| 20260509062608 | 40 | 176 | 0.0 | 0.0 | 0.00 | 0.00 | 0.00 | 88 | 1011.9 |
| 20260509062105 | 40 | 176 | 0.0 | 0.0 | 0.00 | 0.00 | 0.00 | 88 | 1011.8 |
| 20260509061602 | 39 | 176 | 0.0 | 0.0 | 0.00 | 0.00 | 0.00 | 88 | 1012.1 |
| 20260509061059 | 39 | 176 | 0.0 | 0.0 | 0.00 | 0.00 | 0.00 | 88 | 1012.2 |
| 20260509060557 | 39 | 176 | 0.9 | 0.9 | 0.00 | 0.00 | 0.00 | 88 | 1012.2 |
| 20260509060052 | 39 | 176 | 0.9 | 0.9 | 0.00 | 0.00 | 0.00 | 88 | 1012.1 |
| 20260509055548 | 39 | 176 | 0.0 | 0.0 | 0.00 | 0.00 | 0.00 | 88 | 1012.2 |
| 20260509055044 | 39 | 177 | 0.0 | 0.0 | 0.00 | 0.00 | 0.00 | 88 | 1012.3 |
| 20260509054541 | 39 | 177 | 0.0 | 0.0 | 0.00 | 0.00 | 0.00 | 88 | 1012.3 |
| 20260509054039 | 39 | 177 | 0.0 | 0.0 | 0.00 | 0.00 | 0.00 | 87 | 1012.2 |
| 20260509053538 | 39 | 177 | 0.0 | 0.0 | 0.00 | 0.00 | 0.00 | 87 | 1012.3 |
| 20260509053034 | 39 | 177 | 0.0 | 0.0 | 0.00 | 0.00 | 0.00 | 87 | 1012.2 |
| 20260509052532 | 39 | 177 | 0.0 | 0.0 | 0.00 | 0.00 | 0.00 | 87 | 1012.2 |
| 20260509052030 | 39 | 178 | 0.0 | 0.0 | 0.00 | 0.00 | 0.00 | 87 | 1012.2 |
| 20260509051527 | 39 | 179 | 0.0 | 0.0 | 0.00 | 0.00 | 0.00 | 87 | 1012.4 |
| 20260509051024 | 39 | 177 | 0.0 | 0.9 | 0.00 | 0.00 | 0.00 | 87 | 1012.4 |
| 20260509050521 | 39 | 166 | 0.9 | 0.9 | 0.00 | 0.00 | 0.00 | 87 | 1012.5 |
| 20260509050017 | 39 | 175 | 0.0 | 0.0 | 0.00 | 0.00 | 0.00 | 87 | 1012.3 |
| 20260509045515 | 39 | 158 | 0.0 | 0.0 | 0.00 | 0.00 | 0.00 | 87 | 1012.1 |
| 20260509045012 | 39 | 138 | 0.9 | 0.9 | 0.00 | 0.00 | 0.00 | 87 | 1012.6 |
| 20260509044509 | 39 | 147 | 0.9 | 0.9 | 0.00 | 0.00 | 0.00 | 87 | 1012.6 |
| 20260509044007 | 39 | 148 | 0.0 | 0.0 | 0.00 | 0.00 | 0.00 | 86 | 1012.4 |
| 20260509043502 | 39 | 149 | 0.0 | 0.0 | 0.00 | 0.00 | 0.00 | 86 | 1012.7 |
| 20260509042957 | 38 | 148 | 0.0 | 0.0 | 0.00 | 0.00 | 0.00 | 86 | 1012.4 |
| 20260509042455 | 39 | 148 | 0.0 | 0.0 | 0.00 | 0.00 | 0.00 | 86 | 1012.6 |
| 20260509041950 | 39 | 149 | 0.0 | 0.0 | 0.00 | 0.00 | 0.00 | 86 | 1012.5 |
| 20260509041448 | 39 | 150 | 0.9 | 0.9 | 0.00 | 0.00 | 0.00 | 86 | 1012.4 |
| 20260509040946 | 39 | 152 | 0.0 | 0.0 | 0.00 | 0.00 | 0.00 | 85 | 1012.9 |
| 20260509040444 | 38 | 152 | 0.0 | 0.0 | 0.00 | 0.00 | 0.00 | 85 | 1012.6 |
| 20260509035940 | 38 | 152 | 0.0 | 0.0 | 0.00 | 0.07 | 0.07 | 85 | 1012.7 |
| 20260509035437 | 38 | 151 | 0.0 | 0.0 | 0.00 | 0.07 | 0.07 | 84 | 1012.7 |
| 20260509034933 | 38 | 174 | 0.0 | 0.0 | 0.00 | 0.07 | 0.07 | 84 | 1012.5 |
| 20260509034431 | 38 | 176 | 0.9 | 0.9 | 0.00 | 0.07 | 0.07 | 84 | 1012.5 |
| 20260509033928 | 39 | 66 | 2.6 | 2.6 | 0.00 | 0.07 | 0.07 | 84 | 1012.6 |
| 20260509033425 | 39 | 100 | 1.7 | 1.7 | 0.00 | 0.07 | 0.07 | 83 | 1012.6 |
| 20260509032922 | 39 | 187 | 0.0 | 0.0 | 0.00 | 0.07 | 0.07 | 83 | 1012.5 |
| 20260509032420 | 39 | 191 | 0.9 | 0.9 | 0.00 | 0.07 | 0.07 | 82 | 1012.4 |
| 20260509031917 | 40 | 151 | 0.0 | 0.0 | 0.00 | 0.07 | 0.07 | 82 | 1012.5 |
| 20260509031414 | 40 | 152 | 0.0 | 0.0 | 0.00 | 0.07 | 0.07 | 82 | 1012.6 |
| 20260509030911 | 40 | 151 | 0.9 | 0.9 | 0.00 | 0.07 | 0.07 | 81 | 1012.8 |
| 20260509030410 | 39 | 174 | 0.0 | 0.0 | 0.00 | 0.07 | 0.07 | 80 | 1012.8 |
| 20260509025907 | 40 | 111 | 0.9 | 1.7 | 0.00 | 0.07 | 0.07 | 80 | 1012.6 |
| 20260509025402 | 40 | 153 | 0.9 | 0.9 | 0.00 | 0.07 | 0.07 | 79 | 1012.7 |
| 20260509024857 | 40 | 106 | 1.7 | 1.7 | 0.00 | 0.07 | 0.07 | 79 | 1012.7 |
| 20260509024353 | 40 | 117 | 0.9 | 0.9 | 0.00 | 0.07 | 0.07 | 78 | 1012.7 |
| 20260509023851 | 41 | 132 | 0.9 | 0.9 | 0.00 | 0.07 | 0.07 | 77 | 1012.7 |
| 20260509023348 | 41 | 110 | 1.7 | 1.7 | 0.00 | 0.07 | 0.07 | 77 | 1012.7 |
| 20260509022844 | 41 | 134 | 0.9 | 0.9 | 0.00 | 0.07 | 0.07 | 76 | 1012.7 |
| 20260509022342 | 41 | 131 | 0.9 | 0.9 | 0.00 | 0.07 | 0.07 | 76 | 1012.7 |
| 20260509021838 | 42 | 140 | 0.0 | 0.0 | 0.00 | 0.07 | 0.07 | 75 | 1012.6 |
| 20260509021336 | 42 | 111 | 1.7 | 1.7 | 0.00 | 0.07 | 0.07 | 75 | 1012.6 |
| 20260509020833 | 43 | 106 | 1.7 | 1.7 | 0.00 | 0.07 | 0.07 | 75 | 1012.8 |
| 20260509020332 | 43 | 139 | 0.9 | 1.7 | 0.00 | 0.07 | 0.07 | 74 | 1012.7 |
| 20260509015828 | 44 | 165 | 0.0 | 0.0 | 0.00 | 0.07 | 0.07 | 74 | 1012.7 |
| 20260509015327 | 44 | 163 | 0.0 | 0.0 | 0.00 | 0.07 | 0.07 | 74 | 1012.8 |
| 20260509014823 | 44 | 179 | 0.9 | 0.9 | 0.00 | 0.07 | 0.07 | 73 | 1012.4 |
| 20260509014320 | 46 | 140 | 0.9 | 0.9 | 0.00 | 0.07 | 0.07 | 73 | 1012.4 |
| 20260509013817 | 46 | 141 | 0.9 | 0.9 | 0.00 | 0.07 | 0.07 | 73 | 1012.4 |
| 20260509013313 | 46 | 139 | 0.9 | 1.7 | 0.00 | 0.07 | 0.07 | 74 | 1012.5 |
| 20260509012809 | 46 | 145 | 0.0 | 0.0 | 0.00 | 0.07 | 0.07 | 74 | 1012.3 |
| 20260509012307 | 46 | 129 | 0.9 | 0.9 | 0.00 | 0.07 | 0.07 | 74 | 1012.2 |
| 20260509011803 | 46 | 142 | 0.9 | 0.9 | 0.00 | 0.07 | 0.07 | 74 | 1012.4 |
| 20260509011301 | 46 | 155 | 0.0 | 0.9 | 0.00 | 0.07 | 0.07 | 73 | 1012.3 |
| 20260509010758 | 46 | 159 | 0.0 | 0.9 | 0.00 | 0.07 | 0.07 | 73 | 1012.3 |
| 20260509010255 | 46 | 162 | 0.0 | 0.0 | 0.00 | 0.07 | 0.07 | 72 | 1012.1 |
| 20260509005752 | 47 | 162 | 0.0 | 0.0 | 0.00 | 0.07 | 0.07 | 70 | 1012.0 |
| 20260509005250 | 47 | 161 | 0.9 | 0.9 | 0.00 | 0.07 | 0.07 | 68 | 1011.8 |
| 20260509004744 | 47 | 338 | 0.9 | 0.9 | 0.00 | 0.07 | 0.07 | 68 | 1011.7 |
| 20260509004241 | 47 | 113 | 1.7 | 1.7 | 0.00 | 0.07 | 0.07 | 69 | 1011.6 |
| 20260509003739 | 47 | 166 | 0.0 | 0.0 | 0.00 | 0.07 | 0.07 | 68 | 1011.7 |
| 20260509003236 | 47 | 166 | 0.0 | 0.0 | 0.00 | 0.07 | 0.07 | 67 | 1011.6 |
| 20260509002734 | 47 | 167 | 0.0 | 0.0 | 0.00 | 0.07 | 0.07 | 67 | 1011.5 |
| 20260509002231 | 47 | 153 | 0.0 | 0.9 | 0.00 | 0.07 | 0.07 | 67 | 1011.5 |
| 20260509001729 | 47 | 128 | 0.9 | 0.9 | 0.00 | 0.07 | 0.07 | 66 | 1011.3 |
| 20260509001224 | 47 | 100 | 1.7 | 1.7 | 0.00 | 0.07 | 0.07 | 64 | 1011.3 |
| 20260509000723 | 48 | 58 | 1.7 | 1.7 | 0.00 | 0.07 | 0.07 | 63 | 1011.4 |
| 20260509000220 | 49 | 83 | 1.7 | 1.7 | 0.00 | 0.07 | 0.07 | 61 | 1011.4 |
| 20260508235716 | 50 | 92 | 1.7 | 1.7 | 0.00 | 0.07 | 0.07 | 58 | 1011.4 |
| 20260508235213 | 50 | 40 | 2.6 | 2.6 | 0.00 | 0.07 | 0.07 | 58 | 1011.3 |
| 20260508234711 | 51 | 109 | 0.9 | 0.9 | 0.00 | 0.07 | 0.07 | 56 | 1011.2 |
| 20260508234207 | 52 | 98 | 1.7 | 1.7 | 0.00 | 0.07 | 0.07 | 56 | 1011.1 |
| 20260508233706 | 52 | 72 | 1.7 | 1.7 | 0.00 | 0.07 | 0.07 | 51 | 1011.0 |
| 20260508233204 | 53 | 22 | 2.6 | 2.6 | 0.00 | 0.07 | 0.07 | 51 | 1011.0 |
| 20260508232701 | 54 | 343 | 2.6 | 2.6 | 0.00 | 0.07 | 0.07 | 49 | 1011.1 |
| 20260508232157 | 55 | 99 | 1.7 | 1.7 | 0.00 | 0.07 | 0.07 | 50 | 1011.1 |
| 20260508231655 | 55 | 212 | 1.7 | 1.7 | 0.00 | 0.07 | 0.07 | 47 | 1011.3 |
| 20260508231152 | 54 | 206 | 0.0 | 0.0 | 0.00 | 0.07 | 0.07 | 49 | 1011.1 |
| 20260508230649 | 55 | 275 | 0.9 | 1.7 | 0.00 | 0.07 | 0.07 | 49 | 1010.9 |
| 20260508230145 | 55 | 102 | 0.9 | 0.9 | 0.00 | 0.07 | 0.07 | 48 | 1011.2 |
| 20260508225643 | 55 | 229 | 0.9 | 0.9 | 0.00 | 0.07 | 0.07 | 49 | 1011.1 |
| 20260508225139 | 54 | 244 | 0.9 | 0.9 | 0.00 | 0.07 | 0.07 | 49 | 1010.8 |
| 20260508224637 | 54 | 48 | 3.5 | 4.3 | 0.00 | 0.07 | 0.07 | 49 | 1010.9 |
| 20260508224134 | 55 | 56 | 2.6 | 2.6 | 0.00 | 0.07 | 0.07 | 48 | 1011.0 |
| 20260508223632 | 55 | 279 | 3.5 | 5.2 | 0.00 | 0.07 | 0.07 | 47 | 1011.0 |
| 20260508223129 | 56 | 357 | 2.6 | 2.6 | 0.00 | 0.07 | 0.07 | 47 | 1010.9 |
| 20260508222626 | 55 | 40 | 1.7 | 1.7 | 0.00 | 0.07 | 0.07 | 47 | 1010.9 |
| 20260508222123 | 55 | 298 | 2.6 | 2.6 | 0.00 | 0.07 | 0.07 | 48 | 1011.0 |
| 20260508221619 | 55 | 5 | 2.6 | 4.3 | 0.00 | 0.07 | 0.07 | 49 | 1010.9 |
| 20260508221115 | 56 | 314 | 3.5 | 4.3 | 0.00 | 0.07 | 0.07 | 47 | 1011.0 |
| 20260508220612 | 57 | 327 | 4.3 | 5.2 | 0.00 | 0.07 | 0.07 | 46 | 1011.0 |
| 20260508220108 | 57 | 185 | 0.0 | 0.9 | 0.00 | 0.07 | 0.07 | 45 | 1011.1 |
| 20260508215605 | 55 | 183 | 0.9 | 0.9 | 0.00 | 0.07 | 0.07 | 46 | 1011.0 |
| 20260508215102 | 54 | 240 | 1.7 | 1.7 | 0.00 | 0.07 | 0.07 | 48 | 1011.2 |
| 20260508214559 | 55 | 101 | 1.7 | 1.7 | 0.00 | 0.07 | 0.07 | 49 | 1011.1 |
| 20260508214055 | 54 | 81 | 0.9 | 1.7 | 0.00 | 0.07 | 0.07 | 48 | 1011.2 |